Time;durP1;ratioP1;P1;durP2;ratioP2;P2;SDS_P1;SDS_P2;PMS_P1;PMS_P2;Temp;Humidity;BMP_temperature;BMP_pressure;BME280_temperature;BME280_humidity;BME280_pressure;Samples;Min_cycle;Max_cycle;Signal;HPM_P1;HPM_P2
2019/07/14 00:02:08;;;;;;;19.3;14.8;;;;;;;;;;;;;
2019/07/14 00:04:33;;;;;;;19.9;14.9;;;;;;;;;;;;;
2019/07/14 00:06:58;;;;;;;21.8;16.1;;;;;;;;;;;;;
2019/07/14 00:09:23;;;;;;;23.9;17.6;;;;;;;;;;;;;
2019/07/14 00:11:48;;;;;;;24.2;17.5;;;;;;;;;;;;;
2019/07/14 00:14:13;;;;;;;23.4;17.3;;;;;;;;;;;;;
2019/07/14 00:16:38;;;;;;;21.3;16.8;;;;;;;;;;;;;
2019/07/14 00:19:03;;;;;;;20.6;15.7;;;;;;;;;;;;;
2019/07/14 00:21:28;;;;;;;20;15.2;;;;;;;;;;;;;
2019/07/14 00:23:54;;;;;;;17.8;14.2;;;;;;;;;;;;;
2019/07/14 00:26:19;;;;;;;19.3;14.6;;;;;;;;;;;;;
2019/07/14 00:28:44;;;;;;;18.9;14;;;;;;;;;;;;;
2019/07/14 00:31:09;;;;;;;19.2;14;;;;;;;;;;;;;
2019/07/14 00:33:34;;;;;;;17.1;14.1;;;;;;;;;;;;;
2019/07/14 00:35:59;;;;;;;18.2;14.2;;;;;;;;;;;;;
2019/07/14 00:38:25;;;;;;;20.5;13.5;;;;;;;;;;;;;
2019/07/14 00:40:49;;;;;;;16.7;13;;;;;;;;;;;;;
2019/07/14 00:43:14;;;;;;;16;12.6;;;;;;;;;;;;;
2019/07/14 00:45:39;;;;;;;17.8;13.5;;;;;;;;;;;;;
2019/07/14 00:48:05;;;;;;;16.4;13.2;;;;;;;;;;;;;
2019/07/14 00:50:30;;;;;;;18.5;13;;;;;;;;;;;;;
2019/07/14 00:52:55;;;;;;;19.8;13.4;;;;;;;;;;;;;
2019/07/14 00:55:20;;;;;;;20.1;14.2;;;;;;;;;;;;;
2019/07/14 00:57:45;;;;;;;22.8;17.4;;;;;;;;;;;;;
2019/07/14 01:00:10;;;;;;;19.2;14.6;;;;;;;;;;;;;
2019/07/14 01:02:35;;;;;;;19.2;15;;;;;;;;;;;;;
2019/07/14 01:05:00;;;;;;;17.2;13.9;;;;;;;;;;;;;
2019/07/14 01:07:25;;;;;;;20.4;14.8;;;;;;;;;;;;;
2019/07/14 01:09:51;;;;;;;19.1;15.1;;;;;;;;;;;;;
2019/07/14 01:12:16;;;;;;;23.5;15.5;;;;;;;;;;;;;
2019/07/14 01:14:41;;;;;;;21.8;15.6;;;;;;;;;;;;;
2019/07/14 01:17:06;;;;;;;22.4;16.5;;;;;;;;;;;;;
2019/07/14 01:19:31;;;;;;;21.7;16.5;;;;;;;;;;;;;
2019/07/14 01:21:56;;;;;;;22;16;;;;;;;;;;;;;
2019/07/14 01:24:22;;;;;;;21.2;16.2;;;;;;;;;;;;;
2019/07/14 01:26:46;;;;;;;20.8;15.9;;;;;;;;;;;;;
2019/07/14 01:29:12;;;;;;;21.5;16.1;;;;;;;;;;;;;
2019/07/14 01:31:37;;;;;;;23.5;17.4;;;;;;;;;;;;;
2019/07/14 01:34:02;;;;;;;25.2;18.3;;;;;;;;;;;;;
2019/07/14 01:36:27;;;;;;;23.7;16.9;;;;;;;;;;;;;
2019/07/14 01:38:52;;;;;;;21.8;15.5;;;;;;;;;;;;;
2019/07/14 01:41:17;;;;;;;22.9;15.9;;;;;;;;;;;;;
2019/07/14 01:43:42;;;;;;;22.1;16.6;;;;;;;;;;;;;
2019/07/14 01:46:07;;;;;;;21.6;16.4;;;;;;;;;;;;;
2019/07/14 01:48:32;;;;;;;22.1;16.8;;;;;;;;;;;;;
2019/07/14 01:51:00;;;;;;;24;16.5;;;;;;;;;;;;;
2019/07/14 01:53:23;;;;;;;20.6;15.2;;;;;;;;;;;;;
2019/07/14 01:55:48;;;;;;;21.5;15.6;;;;;;;;;;;;;
2019/07/14 01:58:13;;;;;;;21.8;15.8;;;;;;;;;;;;;
2019/07/14 02:00:38;;;;;;;20.9;15.9;;;;;;;;;;;;;
2019/07/14 02:03:03;;;;;;;21.4;15.6;;;;;;;;;;;;;
2019/07/14 02:05:28;;;;;;;19.9;15.3;;;;;;;;;;;;;
2019/07/14 02:07:53;;;;;;;19.8;15.1;;;;;;;;;;;;;
2019/07/14 02:10:19;;;;;;;20.8;15.3;;;;;;;;;;;;;
2019/07/14 02:12:44;;;;;;;23.8;15.7;;;;;;;;;;;;;
2019/07/14 02:15:09;;;;;;;19.8;15.9;;;;;;;;;;;;;
2019/07/14 02:17:34;;;;;;;20.3;15.3;;;;;;;;;;;;;
2019/07/14 02:19:59;;;;;;;19.6;14.9;;;;;;;;;;;;;
2019/07/14 02:22:24;;;;;;;20.1;14.7;;;;;;;;;;;;;
2019/07/14 02:24:49;;;;;;;22.1;15;;;;;;;;;;;;;
2019/07/14 02:27:14;;;;;;;20.6;14.7;;;;;;;;;;;;;
2019/07/14 02:29:39;;;;;;;20.9;15.2;;;;;;;;;;;;;
2019/07/14 02:32:04;;;;;;;22.6;15.2;;;;;;;;;;;;;
2019/07/14 02:34:30;;;;;;;20.6;15.1;;;;;;;;;;;;;
2019/07/14 02:36:55;;;;;;;17.4;13.9;;;;;;;;;;;;;
2019/07/14 02:39:20;;;;;;;18.3;14;;;;;;;;;;;;;
2019/07/14 02:41:45;;;;;;;17.2;14.2;;;;;;;;;;;;;
2019/07/14 02:44:10;;;;;;;20.3;14.2;;;;;;;;;;;;;
2019/07/14 02:46:35;;;;;;;19.2;14;;;;;;;;;;;;;
2019/07/14 02:49:00;;;;;;;19.5;14.4;;;;;;;;;;;;;
2019/07/14 02:51:25;;;;;;;18.5;13.4;;;;;;;;;;;;;
2019/07/14 02:53:51;;;;;;;22.8;16;;;;;;;;;;;;;
2019/07/14 02:56:16;;;;;;;19.8;15.2;;;;;;;;;;;;;
2019/07/14 02:58:41;;;;;;;17.3;14.4;;;;;;;;;;;;;
2019/07/14 03:01:06;;;;;;;19.3;14.5;;;;;;;;;;;;;
2019/07/14 03:03:31;;;;;;;18.5;14.5;;;;;;;;;;;;;
2019/07/14 03:05:56;;;;;;;19;14.7;;;;;;;;;;;;;
2019/07/14 03:08:21;;;;;;;18.9;14.5;;;;;;;;;;;;;
2019/07/14 03:10:46;;;;;;;17.9;14.7;;;;;;;;;;;;;
2019/07/14 03:13:12;;;;;;;21.4;16.2;;;;;;;;;;;;;
2019/07/14 03:15:37;;;;;;;19.3;14.1;;;;;;;;;;;;;
2019/07/14 03:18:02;;;;;;;19.6;13.6;;;;;;;;;;;;;
2019/07/14 03:20:27;;;;;;;19;14.3;;;;;;;;;;;;;
2019/07/14 03:22:52;;;;;;;19.2;14.4;;;;;;;;;;;;;
2019/07/14 03:25:17;;;;;;;18.1;14.3;;;;;;;;;;;;;
2019/07/14 03:27:42;;;;;;;20;13.9;;;;;;;;;;;;;
2019/07/14 03:30:07;;;;;;;19.2;14.9;;;;;;;;;;;;;
2019/07/14 03:32:32;;;;;;;20;15;;;;;;;;;;;;;
2019/07/14 03:34:58;;;;;;;21;15.3;;;;;;;;;;;;;
2019/07/14 03:37:24;;;;;;;20;14.7;;;;;;;;;;;;;
2019/07/14 03:39:48;;;;;;;19.2;14.1;;;;;;;;;;;;;
2019/07/14 03:42:13;;;;;;;18.1;14.1;;;;;;;;;;;;;
2019/07/14 03:44:38;;;;;;;20.7;14.8;;;;;;;;;;;;;
2019/07/14 03:47:04;;;;;;;20.2;14.5;;;;;;;;;;;;;
2019/07/14 03:49:28;;;;;;;22.1;16.2;;;;;;;;;;;;;
2019/07/14 03:51:53;;;;;;;25.1;16.8;;;;;;;;;;;;;
2019/07/14 03:54:19;;;;;;;25.6;18.2;;;;;;;;;;;;;
2019/07/14 03:56:44;;;;;;;25.6;18.1;;;;;;;;;;;;;
2019/07/14 03:59:09;;;;;;;21.9;16.2;;;;;;;;;;;;;
2019/07/14 04:02:28;;;;;;;19.2;15.2;;;;;;;16.87;91.58984;1003.235;;;;
2019/07/14 04:04:53;;;;;;;21.4;15.8;;;;;;;16.8;91.65625;1003.26;;;;
2019/07/14 04:07:18;;;;;;;17.7;13.9;;;;;;;16.93;91.41699;1003.274;;;;
2019/07/14 04:09:43;;;;;;;24.2;16.8;;;;;;;17.02;89.67969;1003.231;;;;
2019/07/14 04:12:08;;;;;;;23.2;16.6;;;;;;;16.93;90.02148;1003.253;;;;
2019/07/14 04:14:33;;;;;;;23.4;16.3;;;;;;;17.09;90.15723;1003.228;;;;
2019/07/14 04:16:58;;;;;;;23.5;16.3;;;;;;;17.18;89.89648;1003.236;;;;
2019/07/14 04:19:23;;;;;;;22.4;16.2;;;;;;;17.34;89.41797;1003.284;;;;
2019/07/14 04:21:48;;;;;;;21;16.1;;;;;;;17.31;89.49414;1003.212;;;;
2019/07/14 04:24:14;;;;;;;20.7;15.7;;;;;;;17.24;89.67871;1003.198;;;;
2019/07/14 04:26:39;;;;;;;19.9;14.5;;;;;;;17.35;89.53809;1003.199;;;;
2019/07/14 04:29:04;;;;;;;21.5;15.9;;;;;;;17.11;89.58105;1003.176;;;;
2019/07/14 04:31:29;;;;;;;23.2;16.4;;;;;;;17.09;89.96094;1003.179;;;;
2019/07/14 04:33:54;;;;;;;26.7;17.5;;;;;;;17.02;90.26074;1003.121;;;;
2019/07/14 04:36:19;;;;;;;21.9;16.2;;;;;;;17.12;90.5127;1003.131;;;;
2019/07/14 04:38:44;;;;;;;23.9;16;;;;;;;17.14;89.4375;1003.177;;;;
2019/07/14 04:41:09;;;;;;;21.4;15.9;;;;;;;17.17;89.79004;1003.17;;;;
2019/07/14 04:43:35;;;;;;;23.9;15.9;;;;;;;17.32;88.97461;1003.194;;;;
2019/07/14 04:46:00;;;;;;;20.6;14.7;;;;;;;17.59;87.87598;1003.228;;;;
2019/07/14 04:48:25;;;;;;;21.5;14.5;;;;;;;17.69;86.65039;1003.233;;;;
2019/07/14 04:50:50;;;;;;;19.8;14.8;;;;;;;17.59;87.39844;1003.237;;;;
2019/07/14 04:53:15;;;;;;;20.7;14.6;;;;;;;17.66;87.21484;1003.218;;;;
2019/07/14 04:55:40;;;;;;;22.8;15.3;;;;;;;17.68;87.11523;1003.234;;;;
2019/07/14 04:58:05;;;;;;;21.1;15.3;;;;;;;17.65;87.49414;1003.243;;;;
2019/07/14 05:00:30;;;;;;;20.1;14.1;;;;;;;17.6;86.98145;1003.15;;;;
2019/07/14 05:02:56;;;;;;;19.5;14.5;;;;;;;17.53;87.63184;1003.113;;;;
2019/07/14 05:05:21;;;;;;;22.2;15.3;;;;;;;17.54;87.72559;1003.096;;;;
2019/07/14 05:07:46;;;;;;;20.3;15;;;;;;;17.71;87.33008;1003.134;;;;
2019/07/14 05:10:11;;;;;;;20.6;14.8;;;;;;;17.98;85.56738;1003.163;;;;
2019/07/14 05:12:36;;;;;;;20.2;15;;;;;;;17.86;86.08008;1003.15;;;;
2019/07/14 05:15:01;;;;;;;20.1;15.2;;;;;;;17.68;87.60449;1003.133;;;;
2019/07/14 05:17:26;;;;;;;19.4;14.5;;;;;;;17.67;87.91699;1003.092;;;;
2019/07/14 05:19:51;;;;;;;20.1;14.3;;;;;;;17.8;87.84863;1003.178;;;;
2019/07/14 05:22:17;;;;;;;20.9;14.9;;;;;;;18.06;86.48047;1003.144;;;;
2019/07/14 05:24:42;;;;;;;21.1;15.5;;;;;;;18.11;86.20898;1003.143;;;;
2019/07/14 05:27:07;;;;;;;20.2;14.9;;;;;;;18.1;86.11426;1003.097;;;;
2019/07/14 05:29:32;;;;;;;20.5;15.3;;;;;;;18.12;86.33887;1003.115;;;;
2019/07/14 05:31:57;;;;;;;21.6;15.5;;;;;;;18.23;85.95313;1003.143;;;;
2019/07/14 05:34:22;;;;;;;20.9;15.2;;;;;;;18.18;85.79102;1003.128;;;;
2019/07/14 05:36:47;;;;;;;20.2;14.7;;;;;;;18.37;84.64258;1003.133;;;;
2019/07/14 05:39:13;;;;;;;21.9;15.4;;;;;;;18.15;85.87891;1003.156;;;;
2019/07/14 05:41:38;;;;;;;22.1;15.5;;;;;;;18.01;87.37598;1003.226;;;;
2019/07/14 05:44:03;;;;;;;22.6;15.2;;;;;;;18.05;87.75977;1003.224;;;;
2019/07/14 05:46:28;;;;;;;21.6;16.4;;;;;;;18.26;86.51758;1003.258;;;;
2019/07/14 05:48:53;;;;;;;23.3;16.8;;;;;;;18.08;87.625;1003.232;;;;
2019/07/14 05:51:18;;;;;;;23.8;16.8;;;;;;;17.91;88.49902;1003.263;;;;
2019/07/14 05:53:44;;;;;;;24.5;16.9;;;;;;;18.41;85.94336;1003.198;;;;
2019/07/14 05:56:09;;;;;;;30.5;19.3;;;;;;;18.06;85.90918;1003.194;;;;
2019/07/14 05:58:34;;;;;;;27.1;18.4;;;;;;;18.16;85.75391;1003.198;;;;
2019/07/14 06:00:59;;;;;;;30.5;20;;;;;;;17.98;85.41602;1003.157;;;;
2019/07/14 06:03:24;;;;;;;29.9;19.6;;;;;;;17.76;86.76953;1003.195;;;;
2019/07/14 06:05:49;;;;;;;29.6;19.5;;;;;;;17.85;87.71777;1003.273;;;;
2019/07/14 06:08:14;;;;;;;33;18.6;;;;;;;18.22;86.41699;1003.302;;;;
2019/07/14 06:10:39;;;;;;;28;18;;;;;;;18.32;84.80664;1003.293;;;;
2019/07/14 06:13:04;;;;;;;30.8;20.1;;;;;;;18.22;83.97168;1003.299;;;;
2019/07/14 06:15:29;;;;;;;27.8;19.4;;;;;;;18.02;84.41016;1003.312;;;;
2019/07/14 06:17:55;;;;;;;30.2;19.1;;;;;;;17.89;85.44531;1003.347;;;;
2019/07/14 06:20:20;;;;;;;32.3;21.2;;;;;;;17.8;86.28711;1003.315;;;;
2019/07/14 06:22:45;;;;;;;32.1;19.1;;;;;;;17.92;86.47363;1003.359;;;;
2019/07/14 06:25:18;;;;;;;29.6;19.1;;;;;;;17.85;85.80859;1003.376;;;;
2019/07/14 06:27:43;;;;;;;28.3;18.9;;;;;;;18.02;85.52832;1003.398;;;;
2019/07/14 06:30:08;;;;;;;29.4;19.2;;;;;;;17.98;84.62305;1003.395;;;;
2019/07/14 06:32:33;;;;;;;33.3;19.7;;;;;;;17.87;85.21875;1003.403;;;;
2019/07/14 06:34:58;;;;;;;31.2;20.2;;;;;;;17.55;87.01953;1003.426;;;;
2019/07/14 06:37:23;;;;;;;35.2;21.7;;;;;;;17.38;87.48535;1003.47;;;;
2019/07/14 06:39:48;;;;;;;32.9;21.4;;;;;;;17.4;88.15137;1003.474;;;;
2019/07/14 06:42:13;;;;;;;36.7;22.9;;;;;;;17.43;87.94824;1003.478;;;;
2019/07/14 06:44:39;;;;;;;36.9;22.2;;;;;;;17.48;88.02832;1003.47;;;;
2019/07/14 06:47:04;;;;;;;32.5;21.8;;;;;;;17.48;87.45801;1003.47;;;;
2019/07/14 06:49:29;;;;;;;32.4;22.2;;;;;;;17.4;88.02344;1003.55;;;;
2019/07/14 06:51:54;;;;;;;34.7;22.7;;;;;;;17.52;87.58203;1003.599;;;;
2019/07/14 06:54:20;;;;;;;32.5;20.6;;;;;;;17.82;86.30469;1003.571;;;;
2019/07/14 06:56:44;;;;;;;33.3;20.8;;;;;;;17.78;86.14551;1003.588;;;;
2019/07/14 06:59:10;;;;;;;33;21;;;;;;;17.65;86.07324;1003.661;;;;
2019/07/14 07:01:35;;;;;;;33.6;21.6;;;;;;;17.66;87.13379;1003.624;;;;
2019/07/14 07:04:00;;;;;;;31.4;20.8;;;;;;;17.73;86.69434;1003.625;;;;
2019/07/14 07:06:25;;;;;;;32.7;21.3;;;;;;;17.88;87.2002;1003.602;;;;
2019/07/14 07:08:50;;;;;;;31.7;21;;;;;;;17.88;85.37207;1003.624;;;;
2019/07/14 07:11:15;;;;;;;30.6;21.2;;;;;;;17.77;85.43066;1003.686;;;;
2019/07/14 07:13:40;;;;;;;31.9;21.7;;;;;;;;;;;;;
2019/07/14 07:16:06;;;;;;;29.5;20.4;;;;;;;;;;;;;
2019/07/14 07:18:31;;;;;;;27.8;18.9;;;;;;;;;;;;;
2019/07/14 07:20:56;;;;;;;27.6;19.1;;;;;;;;;;;;;
2019/07/14 07:23:21;;;;;;;25.4;17.7;;;;;;;;;;;;;
2019/07/14 07:25:47;;;;;;;27.7;18.4;;;;;;;;;;;;;
2019/07/14 07:28:11;;;;;;;26.9;18.5;;;;;;;;;;;;;
2019/07/14 07:30:36;;;;;;;26.7;17.7;;;;;;;;;;;;;
2019/07/14 07:33:02;;;;;;;24.3;17.2;;;;;;;;;;;;;
2019/07/14 07:35:27;;;;;;;21.2;15;;;;;;;;;;;;;
2019/07/14 07:37:52;;;;;;;19.9;13.8;;;;;;;;;;;;;
2019/07/14 07:40:17;;;;;;;20;14.6;;;;;;;;;;;;;
2019/07/14 07:42:42;;;;;;;21.7;14.3;;;;;;;;;;;;;
2019/07/14 07:45:07;;;;;;;20.6;14.3;;;;;;;;;;;;;
2019/07/14 07:47:32;;;;;;;16.9;13.1;;;;;;;;;;;;;
2019/07/14 07:49:57;;;;;;;18.4;13.8;;;;;;;;;;;;;
2019/07/14 07:52:22;;;;;;;17.9;13.2;;;;;;;;;;;;;
2019/07/14 07:54:48;;;;;;;16.4;12.7;;;;;;;;;;;;;
2019/07/14 07:57:13;;;;;;;17.1;12.4;;;;;;;;;;;;;
2019/07/14 07:59:38;;;;;;;16.4;11.6;;;;;;;;;;;;;
2019/07/14 08:02:03;;;;;;;16.5;12;;;;;;;;;;;;;
2019/07/14 08:04:28;;;;;;;15.6;11.7;;;;;;;;;;;;;
2019/07/14 08:06:53;;;;;;;19.8;13.3;;;;;;;;;;;;;
2019/07/14 08:09:19;;;;;;;15.8;11.6;;;;;;;;;;;;;
2019/07/14 08:11:43;;;;;;;14.2;11.9;;;;;;;;;;;;;
2019/07/14 08:14:08;;;;;;;17.2;11.9;;;;;;;;;;;;;
2019/07/14 08:16:34;;;;;;;14.3;11.3;;;;;;;;;;;;;
2019/07/14 08:18:59;;;;;;;17;12.3;;;;;;;;;;;;;
2019/07/14 08:21:24;;;;;;;13.3;10.5;;;;;;;;;;;;;
2019/07/14 08:23:49;;;;;;;15.9;11.7;;;;;;;;;;;;;
2019/07/14 08:26:14;;;;;;;17.6;12.7;;;;;;;;;;;;;
2019/07/14 08:28:39;;;;;;;16.4;12.1;;;;;;;;;;;;;
2019/07/14 08:31:04;;;;;;;17.5;12.5;;;;;;;;;;;;;
2019/07/14 08:33:29;;;;;;;16.8;12.3;;;;;;;;;;;;;
2019/07/14 08:35:54;;;;;;;17.2;12;;;;;;;;;;;;;
2019/07/14 08:38:20;;;;;;;16.6;12.1;;;;;;;;;;;;;
2019/07/14 08:40:45;;;;;;;19.1;13;;;;;;;;;;;;;
2019/07/14 08:43:10;;;;;;;16.9;12.8;;;;;;;;;;;;;
2019/07/14 08:45:35;;;;;;;18.3;12.7;;;;;;;;;;;;;
2019/07/14 08:48:00;;;;;;;19.1;13.4;;;;;;;;;;;;;
2019/07/14 08:50:25;;;;;;;15.2;11.8;;;;;;;;;;;;;
2019/07/14 08:52:50;;;;;;;15.3;10.9;;;;;;;;;;;;;
2019/07/14 08:55:15;;;;;;;15.1;11;;;;;;;;;;;;;
2019/07/14 08:57:41;;;;;;;16;10.2;;;;;;;;;;;;;
2019/07/14 09:00:06;;;;;;;13.2;9.5;;;;;;;;;;;;;
2019/07/14 09:02:31;;;;;;;12.9;9.6;;;;;;;;;;;;;
2019/07/14 09:04:56;;;;;;;11.9;9.3;;;;;;;;;;;;;
2019/07/14 09:07:21;;;;;;;13.9;9.8;;;;;;;;;;;;;
2019/07/14 09:09:46;;;;;;;13.2;9.9;;;;;;;;;;;;;
2019/07/14 09:12:11;;;;;;;14.5;9.8;;;;;;;;;;;;;
2019/07/14 09:14:36;;;;;;;12.8;9.7;;;;;;;;;;;;;
2019/07/14 09:17:02;;;;;;;13;10;;;;;;;;;;;;;
2019/07/14 09:19:27;;;;;;;14.2;10.2;;;;;;;;;;;;;
2019/07/14 09:21:52;;;;;;;12.4;9.9;;;;;;;;;;;;;
2019/07/14 09:24:17;;;;;;;11.4;9.3;;;;;;;;;;;;;
2019/07/14 09:26:42;;;;;;;14.3;9.9;;;;;;;;;;;;;
2019/07/14 09:29:07;;;;;;;11.5;9.3;;;;;;;;;;;;;
2019/07/14 09:31:32;;;;;;;13.5;9.7;;;;;;;;;;;;;
2019/07/14 09:33:57;;;;;;;12.1;9.3;;;;;;;;;;;;;
2019/07/14 09:36:22;;;;;;;14.1;10.1;;;;;;;;;;;;;
2019/07/14 09:38:47;;;;;;;11.8;9.3;;;;;;;;;;;;;
2019/07/14 09:41:12;;;;;;;14.4;9.7;;;;;;;;;;;;;
2019/07/14 09:43:37;;;;;;;13.3;8.8;;;;;;;;;;;;;
2019/07/14 09:46:02;;;;;;;13.4;8.7;;;;;;;;;;;;;
2019/07/14 09:48:27;;;;;;;12;8;;;;;;;;;;;;;
2019/07/14 09:50:53;;;;;;;10.9;7.7;;;;;;;;;;;;;
2019/07/14 09:53:18;;;;;;;9.7;6.7;;;;;;;;;;;;;
2019/07/14 09:55:43;;;;;;;11.1;7.5;;;;;;;;;;;;;
2019/07/14 09:58:08;;;;;;;9.7;7.7;;;;;;;;;;;;;
2019/07/14 10:00:33;;;;;;;10.9;7.4;;;;;;;;;;;;;
2019/07/14 10:02:58;;;;;;;11.9;7.7;;;;;;;;;;;;;
2019/07/14 10:05:23;;;;;;;9.3;6.7;;;;;;;;;;;;;
2019/07/14 10:07:48;;;;;;;10.1;7.5;;;;;;;;;;;;;
2019/07/14 10:10:14;;;;;;;9.4;6.8;;;;;;;;;;;;;
2019/07/14 10:12:39;;;;;;;10.2;6.6;;;;;;;;;;;;;
2019/07/14 10:15:04;;;;;;;8.9;6.5;;;;;;;;;;;;;
2019/07/14 10:17:29;;;;;;;8.9;6.5;;;;;;;;;;;;;
2019/07/14 10:19:54;;;;;;;9.3;6.6;;;;;;;;;;;;;
2019/07/14 10:22:19;;;;;;;10.2;6.8;;;;;;;;;;;;;
2019/07/14 10:24:44;;;;;;;12;7;;;;;;;;;;;;;
2019/07/14 10:27:09;;;;;;;9.3;6.7;;;;;;;;;;;;;
2019/07/14 10:29:34;;;;;;;8.3;6.3;;;;;;;;;;;;;
2019/07/14 10:31:59;;;;;;;8.6;6.4;;;;;;;;;;;;;
2019/07/14 10:34:25;;;;;;;7.4;6;;;;;;;;;;;;;
2019/07/14 10:36:49;;;;;;;8.1;6.3;;;;;;;;;;;;;
2019/07/14 10:39:15;;;;;;;7.9;6.3;;;;;;;;;;;;;
2019/07/14 10:41:40;;;;;;;9.3;6.6;;;;;;;;;;;;;
2019/07/14 10:44:05;;;;;;;8.4;6.3;;;;;;;;;;;;;
2019/07/14 10:46:30;;;;;;;8.3;6.4;;;;;;;;;;;;;
2019/07/14 10:48:55;;;;;;;8.5;6.3;;;;;;;;;;;;;
2019/07/14 10:51:20;;;;;;;9.7;6.5;;;;;;;;;;;;;
2019/07/14 10:53:45;;;;;;;8.8;6.3;;;;;;;;;;;;;
2019/07/14 10:56:11;;;;;;;9.5;6.5;;;;;;;;;;;;;
2019/07/14 10:58:35;;;;;;;9;6.4;;;;;;;;;;;;;
2019/07/14 11:01:01;;;;;;;8.3;6.5;;;;;;;;;;;;;
2019/07/14 11:03:26;;;;;;;10.6;6.9;;;;;;;;;;;;;
2019/07/14 11:05:51;;;;;;;9.6;6.8;;;;;;;;;;;;;
2019/07/14 11:08:16;;;;;;;10.4;7.1;;;;;;;;;;;;;
2019/07/14 11:10:41;;;;;;;8.5;6.7;;;;;;;;;;;;;
2019/07/14 11:13:06;;;;;;;10.8;7.1;;;;;;;;;;;;;
2019/07/14 11:15:31;;;;;;;9.7;7.3;;;;;;;;;;;;;
2019/07/14 11:17:56;;;;;;;8.9;7.1;;;;;;;;;;;;;
2019/07/14 11:20:21;;;;;;;10.8;7.6;;;;;;;;;;;;;
2019/07/14 11:22:47;;;;;;;9.2;7.1;;;;;;;;;;;;;
2019/07/14 11:25:12;;;;;;;11;7.9;;;;;;;;;;;;;
2019/07/14 11:27:37;;;;;;;11;7.3;;;;;;;;;;;;;
2019/07/14 11:30:02;;;;;;;9.9;6.9;;;;;;;;;;;;;
2019/07/14 11:32:27;;;;;;;9.2;7.2;;;;;;;;;;;;;
2019/07/14 11:34:52;;;;;;;10.3;6.8;;;;;;;;;;;;;
2019/07/14 11:37:17;;;;;;;8.8;7.2;;;;;;;;;;;;;
2019/07/14 11:39:42;;;;;;;10.6;7.3;;;;;;;;;;;;;
2019/07/14 11:42:08;;;;;;;19.4;13.8;;;;;;;;;;;;;
2019/07/14 11:44:33;;;;;;;10.4;6.9;;;;;;;;;;;;;
2019/07/14 11:46:58;;;;;;;9.9;7.3;;;;;;;;;;;;;
2019/07/14 11:49:23;;;;;;;10;7.2;;;;;;;;;;;;;
2019/07/14 11:51:48;;;;;;;9;7;;;;;;;;;;;;;
2019/07/14 11:54:13;;;;;;;9.3;6.8;;;;;;;;;;;;;
2019/07/14 11:56:38;;;;;;;9.6;7.4;;;;;;;;;;;;;
2019/07/14 11:59:03;;;;;;;10.8;6.8;;;;;;;;;;;;;
2019/07/14 12:01:28;;;;;;;10.5;8;;;;;;;;;;;;;
2019/07/14 12:03:53;;;;;;;9.8;7.3;;;;;;;;;;;;;
2019/07/14 12:06:18;;;;;;;10.8;8;;;;;;;;;;;;;
2019/07/14 12:08:43;;;;;;;9.7;7.4;;;;;;;;;;;;;
2019/07/14 12:11:08;;;;;;;9.3;7.6;;;;;;;;;;;;;
2019/07/14 12:13:33;;;;;;;11;7.6;;;;;;;;;;;;;
2019/07/14 12:15:58;;;;;;;11.4;8.4;;;;;;;;;;;;;
2019/07/14 12:18:24;;;;;;;10.2;7.9;;;;;;;;;;;;;
2019/07/14 12:20:49;;;;;;;10.7;7.9;;;;;;;;;;;;;
2019/07/14 12:23:14;;;;;;;11.2;8.7;;;;;;;;;;;;;
2019/07/14 12:25:39;;;;;;;11.5;8;;;;;;;;;;;;;
2019/07/14 12:28:04;;;;;;;12.1;8.7;;;;;;;;;;;;;
2019/07/14 12:30:29;;;;;;;13;8.8;;;;;;;;;;;;;
2019/07/14 12:32:54;;;;;;;13.7;10;;;;;;;;;;;;;
2019/07/14 12:35:19;;;;;;;13.5;9.4;;;;;;;;;;;;;
2019/07/14 12:37:45;;;;;;;13.1;9.4;;;;;;;;;;;;;
2019/07/14 12:40:10;;;;;;;12.4;8.8;;;;;;;;;;;;;
2019/07/14 12:42:35;;;;;;;12.3;9.3;;;;;;;;;;;;;
2019/07/14 12:45:00;;;;;;;13.4;9.6;;;;;;;;;;;;;
2019/07/14 12:47:25;;;;;;;13.4;9.6;;;;;;;;;;;;;
2019/07/14 12:49:50;;;;;;;12.9;9.7;;;;;;;;;;;;;
2019/07/14 12:52:16;;;;;;;13.8;9.6;;;;;;;;;;;;;
2019/07/14 12:54:40;;;;;;;15.2;10.4;;;;;;;;;;;;;
2019/07/14 12:57:06;;;;;;;14.6;10.4;;;;;;;;;;;;;
2019/07/14 12:59:31;;;;;;;13.1;10.3;;;;;;;;;;;;;
2019/07/14 13:01:56;;;;;;;13;10;;;;;;;;;;;;;
2019/07/14 13:04:21;;;;;;;15.7;10.7;;;;;;;;;;;;;
2019/07/14 13:06:46;;;;;;;14.9;10.8;;;;;;;;;;;;;
2019/07/14 13:09:11;;;;;;;14.7;10.8;;;;;;;;;;;;;
2019/07/14 13:11:36;;;;;;;13.2;9.4;;;;;;;;;;;;;
2019/07/14 13:14:01;;;;;;;10.8;8.8;;;;;;;;;;;;;
2019/07/14 13:16:26;;;;;;;16.7;9.2;;;;;;;;;;;;;
2019/07/14 13:18:51;;;;;;;11.9;8.8;;;;;;;;;;;;;
2019/07/14 13:21:17;;;;;;;13;9.2;;;;;;;;;;;;;
2019/07/14 13:23:42;;;;;;;12;9;;;;;;;;;;;;;
2019/07/14 13:26:07;;;;;;;12.3;9.4;;;;;;;;;;;;;
2019/07/14 13:28:32;;;;;;;11.9;9.3;;;;;;;;;;;;;
2019/07/14 13:30:57;;;;;;;13.5;8.9;;;;;;;;;;;;;
2019/07/14 13:33:22;;;;;;;13.4;9.8;;;;;;;;;;;;;
2019/07/14 13:35:47;;;;;;;13.9;9.7;;;;;;;;;;;;;
2019/07/14 13:38:12;;;;;;;11.8;8.6;;;;;;;;;;;;;
2019/07/14 13:40:37;;;;;;;11.1;8.4;;;;;;;;;;;;;
2019/07/14 13:43:02;;;;;;;11.9;8.8;;;;;;;;;;;;;
2019/07/14 13:45:28;;;;;;;10.9;8;;;;;;;;;;;;;
2019/07/14 13:47:53;;;;;;;12.1;8.2;;;;;;;;;;;;;
2019/07/14 13:50:18;;;;;;;12.5;8.8;;;;;;;;;;;;;
2019/07/14 13:52:43;;;;;;;12.5;7.8;;;;;;;;;;;;;
2019/07/14 13:55:08;;;;;;;10.3;8.3;;;;;;;;;;;;;
2019/07/14 13:57:33;;;;;;;11.7;8.2;;;;;;;;;;;;;
2019/07/14 13:59:59;;;;;;;12.1;8.9;;;;;;;;;;;;;
2019/07/14 14:02:24;;;;;;;10.6;8.9;;;;;;;;;;;;;
2019/07/14 14:04:49;;;;;;;9.6;7.9;;;;;;;;;;;;;
2019/07/14 14:07:14;;;;;;;11.1;8.3;;;;;;;;;;;;;
2019/07/14 14:09:39;;;;;;;12.4;8.6;;;;;;;;;;;;;
2019/07/14 14:12:04;;;;;;;11.1;7.5;;;;;;;;;;;;;
2019/07/14 14:14:29;;;;;;;11.3;7.6;;;;;;;;;;;;;
2019/07/14 14:16:55;;;;;;;11.1;7.8;;;;;;;;;;;;;
2019/07/14 14:19:20;;;;;;;11;7.6;;;;;;;;;;;;;
2019/07/14 14:21:45;;;;;;;10.4;7.6;;;;;;;;;;;;;
2019/07/14 14:24:10;;;;;;;9.3;7.2;;;;;;;;;;;;;
2019/07/14 14:26:35;;;;;;;8.5;7.1;;;;;;;;;;;;;
2019/07/14 14:29:00;;;;;;;9.7;7;;;;;;;;;;;;;
2019/07/14 14:31:25;;;;;;;8.7;6.9;;;;;;;;;;;;;
2019/07/14 14:33:50;;;;;;;11.3;7.4;;;;;;;;;;;;;
2019/07/14 14:36:15;;;;;;;9.5;6.8;;;;;;;;;;;;;
2019/07/14 14:38:40;;;;;;;8.2;6.6;;;;;;;;;;;;;
2019/07/14 14:41:06;;;;;;;8.2;6.5;;;;;;;;;;;;;
2019/07/14 14:43:31;;;;;;;9.7;7;;;;;;;;;;;;;
2019/07/14 14:45:56;;;;;;;9.2;7.2;;;;;;;;;;;;;
2019/07/14 14:48:21;;;;;;;7.6;6.3;;;;;;;;;;;;;
2019/07/14 14:50:46;;;;;;;8.3;5.8;;;;;;;;;;;;;
2019/07/14 14:53:11;;;;;;;10.6;6.4;;;;;;;;;;;;;
2019/07/14 14:55:36;;;;;;;8.2;5.8;;;;;;;;;;;;;
2019/07/14 14:58:01;;;;;;;9;6.2;;;;;;;;;;;;;
2019/07/14 15:00:26;;;;;;;8.4;5.9;;;;;;;;;;;;;
2019/07/14 15:02:52;;;;;;;7.5;6;;;;;;;;;;;;;
2019/07/14 15:05:17;;;;;;;7.3;6;;;;;;;;;;;;;
2019/07/14 15:07:42;;;;;;;6.6;5.5;;;;;;;;;;;;;
2019/07/14 15:10:07;;;;;;;7.6;5.7;;;;;;;;;;;;;
2019/07/14 15:12:32;;;;;;;7.3;5.2;;;;;;;;;;;;;
2019/07/14 15:14:57;;;;;;;6.4;5.5;;;;;;;;;;;;;
2019/07/14 15:17:22;;;;;;;6.9;5.1;;;;;;;;;;;;;
2019/07/14 15:19:47;;;;;;;6.4;5;;;;;;;;;;;;;
2019/07/14 15:22:13;;;;;;;5.5;4.8;;;;;;;;;;;;;
2019/07/14 15:24:38;;;;;;;5.8;4.7;;;;;;;;;;;;;
2019/07/14 15:27:03;;;;;;;6.3;4.7;;;;;;;;;;;;;
2019/07/14 15:29:28;;;;;;;5.8;4.3;;;;;;;;;;;;;
2019/07/14 15:31:53;;;;;;;5.8;4.1;;;;;;;;;;;;;
2019/07/14 15:34:18;;;;;;;5.2;4.2;;;;;;;;;;;;;
2019/07/14 15:36:43;;;;;;;5.1;4.2;;;;;;;;;;;;;
2019/07/14 15:39:08;;;;;;;5.5;4.5;;;;;;;;;;;;;
2019/07/14 15:41:33;;;;;;;5.5;4.1;;;;;;;;;;;;;
2019/07/14 15:43:59;;;;;;;6.4;4;;;;;;;;;;;;;
2019/07/14 15:46:24;;;;;;;6.4;4.7;;;;;;;;;;;;;
2019/07/14 15:48:49;;;;;;;5.3;4.2;;;;;;;;;;;;;
2019/07/14 15:51:14;;;;;;;6.9;4.6;;;;;;;;;;;;;
2019/07/14 15:53:39;;;;;;;5;4.2;;;;;;;;;;;;;
2019/07/14 15:56:04;;;;;;;6.1;4.4;;;;;;;;;;;;;
2019/07/14 15:58:29;;;;;;;5.5;4;;;;;;;;;;;;;
2019/07/14 16:00:54;;;;;;;6.2;4.4;;;;;;;;;;;;;
2019/07/14 16:03:19;;;;;;;5.1;4.6;;;;;;;;;;;;;
2019/07/14 16:05:45;;;;;;;5.8;4.4;;;;;;;;;;;;;
2019/07/14 16:08:09;;;;;;;5.8;4.5;;;;;;;;;;;;;
2019/07/14 16:10:35;;;;;;;8.3;4.8;;;;;;;;;;;;;
2019/07/14 16:13:00;;;;;;;5.5;4.5;;;;;;;;;;;;;
2019/07/14 16:15:25;;;;;;;5.1;4.6;;;;;;;;;;;;;
2019/07/14 16:17:50;;;;;;;4.9;4.1;;;;;;;;;;;;;
2019/07/14 16:20:15;;;;;;;6.5;4.2;;;;;;;;;;;;;
2019/07/14 16:22:40;;;;;;;4.9;4.3;;;;;;;;;;;;;
2019/07/14 16:25:06;;;;;;;5.5;4.7;;;;;;;;;;;;;
2019/07/14 16:27:31;;;;;;;5.7;4.5;;;;;;;;;;;;;
2019/07/14 16:29:56;;;;;;;5.3;4.6;;;;;;;;;;;;;
2019/07/14 16:32:21;;;;;;;5.1;4.4;;;;;;;;;;;;;
2019/07/14 16:34:46;;;;;;;5.8;4.6;;;;;;;;;;;;;
2019/07/14 16:37:11;;;;;;;6.5;4.6;;;;;;;;;;;;;
2019/07/14 16:39:36;;;;;;;6.1;4.4;;;;;;;;;;;;;
2019/07/14 16:42:01;;;;;;;4.9;4.3;;;;;;;;;;;;;
2019/07/14 16:44:26;;;;;;;7.3;5.5;;;;;;;;;;;;;
2019/07/14 16:46:51;;;;;;;8.6;5.3;;;;;;;;;;;;;
2019/07/14 16:49:16;;;;;;;5.8;5.1;;;;;;;;;;;;;
2019/07/14 16:51:41;;;;;;;5.5;4.7;;;;;;;;;;;;;
2019/07/14 16:54:07;;;;;;;5.7;4.6;;;;;;;;;;;;;
2019/07/14 16:56:32;;;;;;;5.7;5;;;;;;;;;;;;;
2019/07/14 16:58:57;;;;;;;5.7;4.8;;;;;;;;;;;;;
2019/07/14 17:01:22;;;;;;;6.5;5;;;;;;;;;;;;;
2019/07/14 17:03:47;;;;;;;5.3;4.7;;;;;;;;;;;;;
2019/07/14 17:06:12;;;;;;;6.3;5;;;;;;;;;;;;;
2019/07/14 17:08:39;;;;;;;5.5;4.8;;;;;;;;;;;;;
2019/07/14 17:11:02;;;;;;;5.5;4.6;;;;;;;;;;;;;
2019/07/14 17:13:27;;;;;;;5.4;4.5;;;;;;;;;;;;;
2019/07/14 17:15:53;;;;;;;5.4;4.5;;;;;;;;;;;;;
2019/07/14 17:18:18;;;;;;;5.6;4.8;;;;;;;;;;;;;
2019/07/14 17:20:43;;;;;;;5.4;4.8;;;;;;;;;;;;;
2019/07/14 17:23:08;;;;;;;4.5;4.1;;;;;;;;;;;;;
2019/07/14 17:25:33;;;;;;;4.8;4;;;;;;;;;;;;;
2019/07/14 17:27:58;;;;;;;5.5;4;;;;;;;;;;;;;
2019/07/14 17:30:23;;;;;;;4.4;3.9;;;;;;;;;;;;;
2019/07/14 17:32:48;;;;;;;4.6;3.9;;;;;;;;;;;;;
2019/07/14 17:35:13;;;;;;;5.5;4;;;;;;;;;;;;;
2019/07/14 17:37:38;;;;;;;6.5;3.9;;;;;;;;;;;;;
2019/07/14 17:40:03;;;;;;;4.6;4;;;;;;;;;;;;;
2019/07/14 17:42:29;;;;;;;5;4;;;;;;;;;;;;;
2019/07/14 17:44:54;;;;;;;6.5;4.2;;;;;;;;;;;;;
2019/07/14 17:47:19;;;;;;;5.8;3.9;;;;;;;;;;;;;
2019/07/14 17:49:44;;;;;;;4.6;4.1;;;;;;;;;;;;;
2019/07/14 17:52:09;;;;;;;4.4;4;;;;;;;;;;;;;
2019/07/14 17:54:35;;;;;;;5.2;3.9;;;;;;;;;;;;;
2019/07/14 17:56:59;;;;;;;4.9;3.8;;;;;;;;;;;;;
2019/07/14 17:59:24;;;;;;;4.9;4;;;;;;;;;;;;;
2019/07/14 18:01:50;;;;;;;4.9;3.9;;;;;;;;;;;;;
2019/07/14 18:04:15;;;;;;;4.8;4;;;;;;;;;;;;;
2019/07/14 18:06:40;;;;;;;4.7;4.2;;;;;;;;;;;;;
2019/07/14 18:09:05;;;;;;;3.8;3.4;;;;;;;;;;;;;
2019/07/14 18:11:30;;;;;;;4.2;3.7;;;;;;;;;;;;;
2019/07/14 18:13:55;;;;;;;3.8;3.4;;;;;;;;;;;;;
2019/07/14 18:16:20;;;;;;;4.6;3.7;;;;;;;;;;;;;
2019/07/14 18:18:45;;;;;;;5.1;3.5;;;;;;;;;;;;;
2019/07/14 18:21:10;;;;;;;6.3;3.2;;;;;;;;;;;;;
2019/07/14 18:23:35;;;;;;;3.7;3.2;;;;;;;;;;;;;
2019/07/14 18:26:00;;;;;;;3.1;2.8;;;;;;;;;;;;;
2019/07/14 18:28:26;;;;;;;3.2;2.7;;;;;;;;;;;;;
2019/07/14 18:30:51;;;;;;;5.9;2.8;;;;;;;;;;;;;
2019/07/14 18:33:16;;;;;;;2.1;1.9;;;;;;;;;;;;;
2019/07/14 18:35:41;;;;;;;3.8;2;;;;;;;;;;;;;
2019/07/14 18:38:06;;;;;;;4;2.4;;;;;;;;;;;;;
2019/07/14 18:40:33;;;;;;;3.4;1.9;;;;;;;;;;;;;